Aérodrome :
LOGIN :

S'inscrire | Disclaimer

   EN    FR    IT 

 










Légende :    VFR   VFR Marginal   IFR   IFR Intensif   IFR Très Intensif
Visi : 
Plafond : 
>= 8 km
>= 3000ft
5 à 8 km
1000 à 3000 ft
1500m à 5 km
500 à 1000 ft
800 à 1500m
200 à 500 ft
< 800m
< 200 ft
Symboles :   Orages  Brouillard  Fortes neiges  Fortes précipitations  Vent > 20 kt
SIGMETs :   Divers  Orages  Givrage  Turbulence  Onde Orograph.  Cendres Volcan.







- Altitude de l'aérodrome : 124 ft
- Code IATA : RNS
- Voir les cartes d'approche


LFRN - Rennes

DERNIER METAR :
  • 221400Z AUTO 25009KT 9999 BKN033 BKN041 09/03 Q1005 TEMPO 28015G25KT 3000 SHRAGS BKN012CB

METARs EXPIRÉS :
  • 221330Z AUTO 26008KT 9999 FEW028 OVC150 09/04 Q1006 TEMPO 28015G25KT 3000 SHRAGS BKN012CB
  • 221300Z AUTO 26007KT 9999 BKN026 BKN032 OVC160 08/04 Q1006 TEMPO 28015G25KT 3000 SHRAGS BKN012CB
  • 221230Z AUTO 25009KT 220V280 9999 FEW026 BKN160 09/04 Q1007 TEMPO 28015G25KT 3000 SHRAGS BKN012CB
  • 221200Z AUTO 26009KT 9999 FEW023 OVC150 08/05 Q1007 TEMPO 4000 SHRA BKN020TCU
  • 221130Z AUTO 28008KT 240V310 9999 BKN038 OVC140 08/04 Q1008 TEMPO 4000 SHRA BKN020TCU
  • 221100Z AUTO 29008KT 9999 SCT037 08/04 Q1008 TEMPO 4000 SHRA BKN020TCU

TAF TAF LFRN
Valide du 22 à 12h jusqu'au 23 à 12h UTC


221100Z 2212/2312 28010KT 9999 SCT030
PROB30
TEMPO 2212/2214 4000 SHRA BKN020TCU
PROB40
TEMPO 2214/2218 28015G25KT 3000 SHRAGS BKN012CB
TEMPO 2218/2309 4000 SHRA BKN015TCU
PROB30
TEMPO 2300/2309 BKN008
BECMG 2306/2309 33010KT
PROB30
TEMPO 2309/2312 4000 SHRA BKN015TCU
ATIS : +33 2 99 67 72 50
Pas de NOTAMs connus pour ce terrain.



MET'MAP, la Météo Aéronautique d'un coup d'oeil ! - Copyright ORBIFLY Décembre 2007 - Disclaimer

ORBIFLY MET'MAP TEAM :

Programmation & Développement : Alexandra Zaïnal
Conception & Développement : Baudouin d'Aumeries
Co-Programmation & Développement : Marc-Olivier Méhu
Soutien technique & logistique : Manuel Goepfert

Contact : metmap@orbifly.com




SOURCES & CREDITS :

   NOAA